Time;durP1;ratioP1;P1;durP2;ratioP2;P2;SDS_P1;SDS_P2;PMS_P1;PMS_P2;Temp;Humidity;BMP_temperature;BMP_pressure;BME280_temperature;BME280_humidity;BME280_pressure;Samples;Min_cycle;Max_cycle;Signal;HPM_P1;HPM_P2
2024/01/31 00:01:31;;;;;;;1.65;1.23;;;7.50;99.90;;;;;;5102128;28;20034;-35
2024/01/31 00:03:57;;;;;;;3.35;1.20;;;7.60;99.90;;;;;;5102701;28;20335;-34
2024/01/31 00:06:23;;;;;;;2.28;1.10;;;7.60;99.90;;;;;;5101890;28;20786;-33
2024/01/31 00:08:48;;;;;;;5.25;1.27;;;7.60;99.90;;;;;;5099334;28;20136;-36
2024/01/31 00:11:14;;;;;;;3.60;1.23;;;7.60;99.90;;;;;;5099298;28;20043;-42
2024/01/31 00:13:40;;;;;;;2.58;1.10;;;7.60;99.90;;;;;;5101352;28;20063;-31
2024/01/31 00:16:05;;;;;;;3.20;1.42;;;7.60;99.90;;;;;;5099873;28;20056;-35
2024/01/31 00:18:31;;;;;;;1.80;1.27;;;7.60;99.90;;;;;;5100674;28;20023;-36
2024/01/31 00:21:02;;;;;;;3.10;0.93;;;7.60;99.90;;;;;;5102044;28;20542;-33
2024/01/31 00:23:28;;;;;;;3.50;1.10;;;7.60;99.90;;;;;;5100246;28;20930;-30
2024/01/31 00:25:53;;;;;;;3.28;1.10;;;7.60;99.90;;;;;;5102429;28;20028;-34
2024/01/31 00:28:19;;;;;;;2.28;1.17;;;7.60;99.90;;;;;;5100646;28;20404;-34
2024/01/31 00:30:45;;;;;;;3.00;1.30;;;7.60;99.90;;;;;;5101132;28;20724;-34
2024/01/31 00:33:10;;;;;;;1.85;0.90;;;7.60;99.90;;;;;;5099957;28;20394;-37
2024/01/31 00:35:36;;;;;;;2.53;1.42;;;7.60;99.90;;;;;;5097460;28;20465;-35
2024/01/31 00:38:01;;;;;;;3.63;1.45;;;7.50;99.90;;;;;;5101749;28;20016;-34
2024/01/31 00:40:27;;;;;;;2.08;1.20;;;7.50;99.90;;;;;;5101896;28;20649;-36
2024/01/31 00:42:52;;;;;;;3.20;1.38;;;7.40;99.90;;;;;;5099879;28;20031;-36
2024/01/31 00:45:18;;;;;;;1.52;0.95;;;7.40;99.90;;;;;;5101563;28;20038;-34
2024/01/31 00:47:44;;;;;;;2.83;1.20;;;7.40;99.90;;;;;;5102123;28;20031;-33
2024/01/31 00:50:15;;;;;;;4.32;1.45;;;7.40;99.90;;;;;;5100666;28;20377;-33
2024/01/31 00:52:44;;;;;;;2.67;1.20;;;7.40;99.90;;;;;;5101190;28;20100;-37
2024/01/31 00:55:13;;;;;;;4.55;1.27;;;7.40;99.90;;;;;;5101621;28;20804;-36
2024/01/31 00:57:38;;;;;;;2.28;1.10;;;7.40;99.90;;;;;;5099815;28;20067;-36
2024/01/31 01:00:05;;;;;;;3.05;1.33;;;7.40;99.90;;;;;;5101088;28;20095;-36
2024/01/31 01:02:31;;;;;;;2.75;1.10;;;7.40;99.90;;;;;;5099687;28;20106;-35
2024/01/31 01:04:57;;;;;;;2.40;1.10;;;7.50;99.90;;;;;;5100431;28;20019;-31
2024/01/31 01:07:23;;;;;;;2.70;1.30;;;7.40;99.90;;;;;;5100682;28;20038;-32
2024/01/31 01:09:48;;;;;;;2.20;1.10;;;7.50;99.90;;;;;;5100496;28;20767;-33
2024/01/31 01:12:14;;;;;;;1.83;1.10;;;7.50;99.90;;;;;;5099614;28;20028;-36
2024/01/31 01:14:39;;;;;;;1.75;0.82;;;7.50;99.90;;;;;;5101042;28;20031;-33
2024/01/31 01:17:05;;;;;;;1.48;1.10;;;7.40;99.90;;;;;;5100852;28;20063;-34
2024/01/31 01:19:31;;;;;;;2.97;1.23;;;7.40;99.90;;;;;;5099948;28;20032;-36
2024/01/31 01:21:57;;;;;;;1.98;0.95;;;7.40;99.90;;;;;;5100324;28;20140;-38
2024/01/31 01:24:24;;;;;;;3.85;1.20;;;7.40;99.90;;;;;;5100441;28;20020;-34
2024/01/31 01:26:49;;;;;;;3.40;1.08;;;7.40;99.90;;;;;;5100132;28;20031;-37
2024/01/31 01:29:21;;;;;;;2.03;1.15;;;7.40;99.90;;;;;;5100219;28;20209;-35
2024/01/31 01:31:47;;;;;;;3.10;1.08;;;7.40;99.90;;;;;;5100777;28;20061;-35
2024/01/31 01:34:15;;;;;;;1.88;0.90;;;7.40;99.90;;;;;;5098567;28;20023;-36
2024/01/31 01:36:41;;;;;;;1.38;1.00;;;7.40;99.90;;;;;;5099907;28;20057;-37
2024/01/31 01:39:07;;;;;;;2.63;0.95;;;7.40;99.90;;;;;;5099885;28;20976;-32
2024/01/31 01:41:35;;;;;;;3.45;1.42;;;7.40;99.90;;;;;;5100409;28;20458;-33
2024/01/31 01:44:01;;;;;;;1.50;1.00;;;7.40;99.90;;;;;;5099635;28;20072;-35
2024/01/31 01:46:27;;;;;;;3.78;1.50;;;7.40;99.90;;;;;;5099447;28;20710;-35
2024/01/31 01:48:53;;;;;;;3.28;1.40;;;7.40;99.90;;;;;;5099835;28;20107;-36
2024/01/31 01:51:21;;;;;;;2.70;1.23;;;7.40;99.90;;;;;;5099564;28;20039;-35
2024/01/31 01:53:50;;;;;;;1.50;1.10;;;7.40;99.90;;;;;;5099166;28;20027;-36
2024/01/31 01:56:17;;;;;;;3.20;1.20;;;7.40;99.90;;;;;;5099451;28;20024;-32
2024/01/31 01:58:44;;;;;;;2.13;1.20;;;7.40;99.90;;;;;;5100398;28;20030;-36
2024/01/31 02:01:12;;;;;;;2.78;1.30;;;7.40;99.90;;;;;;5098512;28;20046;-32
2024/01/31 02:03:38;;;;;;;4.10;1.20;;;7.40;99.90;;;;;;5098941;28;20035;-35
2024/01/31 02:06:04;;;;;;;1.73;1.05;;;7.30;99.90;;;;;;5099846;28;20031;-33
2024/01/31 02:08:30;;;;;;;2.45;1.20;;;7.40;99.90;;;;;;5097754;28;20041;-36
2024/01/31 02:10:56;;;;;;;1.88;0.90;;;7.40;99.90;;;;;;5099379;28;20041;-35
2024/01/31 02:13:22;;;;;;;1.77;1.10;;;7.40;99.90;;;;;;5099961;28;20019;-35
2024/01/31 02:15:55;;;;;;;3.15;1.30;;;7.30;99.90;;;;;;5098663;28;20047;-31
2024/01/31 02:18:28;;;;;;;3.33;1.30;;;7.30;99.90;;;;;;5098796;28;20040;-32
2024/01/31 02:20:53;;;;;;;2.47;0.90;;;7.30;99.90;;;;;;5087369;28;20192;-35
2024/01/31 02:23:23;;;;;;;0.93;0.88;;;7.30;99.90;;;;;;5099262;28;20024;-35
2024/01/31 02:25:49;;;;;;;2.13;1.13;;;7.30;99.90;;;;;;5098602;28;20027;-35
2024/01/31 02:28:18;;;;;;;1.30;0.90;;;7.30;99.90;;;;;;5099201;28;20130;-36
2024/01/31 02:30:44;;;;;;;2.30;1.00;;;7.30;99.90;;;;;;5097835;28;20031;-34
2024/01/31 02:33:09;;;;;;;1.60;0.95;;;7.30;99.90;;;;;;5099226;28;20571;-34
2024/01/31 02:35:37;;;;;;;2.45;0.95;;;7.30;99.90;;;;;;5098809;28;20320;-36
2024/01/31 02:38:03;;;;;;;2.03;0.98;;;7.30;99.90;;;;;;5098795;28;20019;-33
2024/01/31 02:40:29;;;;;;;2.20;1.10;;;7.30;99.90;;;;;;5097997;28;20747;-35
2024/01/31 02:42:56;;;;;;;1.92;1.10;;;7.30;99.90;;;;;;5097890;28;20028;-32
2024/01/31 02:45:24;;;;;;;2.45;1.40;;;7.30;99.90;;;;;;5097915;28;20127;-34
2024/01/31 02:47:53;;;;;;;1.50;0.98;;;7.30;99.90;;;;;;5095480;28;20019;-29
2024/01/31 02:50:19;;;;;;;2.35;1.02;;;7.30;99.90;;;;;;5096692;28;20051;-34
2024/01/31 02:52:46;;;;;;;3.28;1.40;;;7.20;99.90;;;;;;5097336;28;20019;-35
2024/01/31 02:55:14;;;;;;;1.48;1.00;;;7.20;99.90;;;;;;5096611;28;20581;-34
2024/01/31 02:57:40;;;;;;;1.65;0.95;;;7.30;99.90;;;;;;5097083;28;20024;-30
2024/01/31 03:00:06;;;;;;;2.28;1.15;;;7.30;99.90;;;;;;5098308;28;20028;-32
2024/01/31 03:02:35;;;;;;;2.15;0.93;;;7.30;99.90;;;;;;5099038;28;20020;-34
2024/01/31 03:05:00;;;;;;;1.75;0.80;;;7.20;99.90;;;;;;5098420;28;20242;-33
2024/01/31 03:07:26;;;;;;;1.35;0.93;;;7.20;99.90;;;;;;5098804;28;20100;-33
2024/01/31 03:09:51;;;;;;;3.00;1.13;;;7.10;99.90;;;;;;5098768;28;20095;-34
2024/01/31 03:12:17;;;;;;;2.53;1.10;;;7.10;99.90;;;;;;5098230;28;20015;-34
2024/01/31 03:14:45;;;;;;;1.75;1.00;;;7.10;99.90;;;;;;5099395;28;20027;-35
2024/01/31 03:17:11;;;;;;;2.08;1.23;;;7.20;99.90;;;;;;5097579;28;20040;-36
2024/01/31 03:19:40;;;;;;;2.00;1.17;;;7.10;99.90;;;;;;5098851;28;20024;-32
2024/01/31 03:22:06;;;;;;;2.47;1.17;;;7.20;99.90;;;;;;5098590;28;20020;-31
2024/01/31 03:24:31;;;;;;;3.78;1.35;;;7.20;99.90;;;;;;5098440;28;20039;-33
2024/01/31 03:27:00;;;;;;;1.20;0.80;;;7.20;99.90;;;;;;5098418;28;20120;-36
2024/01/31 03:29:25;;;;;;;1.60;1.10;;;7.10;99.90;;;;;;5098433;28;20145;-31
2024/01/31 03:31:51;;;;;;;1.60;0.80;;;7.10;99.90;;;;;;5098501;28;20464;-36
2024/01/31 03:34:17;;;;;;;2.20;1.08;;;7.10;99.90;;;;;;5097724;28;20036;-35
2024/01/31 03:36:43;;;;;;;2.60;1.10;;;7.10;99.90;;;;;;5098415;28;20592;-38
2024/01/31 03:39:09;;;;;;;2.00;1.20;;;7.20;99.90;;;;;;5097704;28;20023;-37
2024/01/31 03:41:42;;;;;;;2.75;1.30;;;7.20;99.90;;;;;;5098000;28;20035;-36
2024/01/31 03:44:07;;;;;;;2.53;1.00;;;7.20;99.90;;;;;;5088915;28;20023;-35
2024/01/31 03:46:33;;;;;;;2.22;1.38;;;7.20;99.90;;;;;;5097627;28;20031;-35
2024/01/31 03:48:58;;;;;;;2.53;1.65;;;7.20;99.90;;;;;;5098728;28;20171;-34
2024/01/31 03:51:24;;;;;;;1.85;1.25;;;7.20;99.90;;;;;;5098320;28;20127;-33
2024/01/31 03:53:56;;;;;;;2.28;1.45;;;7.20;99.90;;;;;;5098033;28;20024;-35
2024/01/31 03:56:21;;;;;;;2.72;1.30;;;7.20;99.90;;;;;;5095279;28;20027;-35
2024/01/31 03:58:47;;;;;;;1.35;1.25;;;7.20;99.90;;;;;;5097122;28;20556;-35
2024/01/31 04:01:17;;;;;;;2.60;1.33;;;7.20;99.90;;;;;;5097164;28;20038;-36
2024/01/31 04:03:45;;;;;;;2.22;1.27;;;7.20;99.90;;;;;;5099292;28;20120;-37
2024/01/31 04:06:13;;;;;;;1.13;0.82;;;7.20;99.90;;;;;;5098413;28;20015;-37
2024/01/31 04:08:39;;;;;;;2.60;1.25;;;7.20;99.90;;;;;;5097257;28;20036;-36
2024/01/31 04:11:04;;;;;;;1.77;1.20;;;7.20;99.90;;;;;;5099512;28;20032;-33
2024/01/31 04:13:33;;;;;;;4.80;1.20;;;7.20;99.90;;;;;;5100454;28;20027;-37
2024/01/31 04:15:59;;;;;;;1.25;1.00;;;7.20;99.90;;;;;;5100425;28;20121;-34
2024/01/31 04:18:24;;;;;;;1.17;1.08;;;7.20;99.90;;;;;;5102530;28;20143;-37
2024/01/31 04:20:50;;;;;;;1.75;1.08;;;7.20;99.90;;;;;;5101580;28;20027;-35
2024/01/31 04:23:19;;;;;;;2.50;1.30;;;7.20;99.90;;;;;;5100328;28;20016;-36
2024/01/31 04:25:44;;;;;;;1.80;1.17;;;7.20;99.90;;;;;;5101758;28;20065;-36
2024/01/31 04:28:13;;;;;;;1.35;1.02;;;7.20;99.90;;;;;;5100005;28;20009;-37
2024/01/31 04:30:38;;;;;;;1.98;1.10;;;7.20;99.90;;;;;;5101055;28;20816;-36
2024/01/31 04:33:04;;;;;;;2.15;1.00;;;7.20;99.90;;;;;;5101477;28;20020;-36
2024/01/31 04:35:29;;;;;;;2.35;1.30;;;7.10;99.90;;;;;;5100493;28;20035;-36
2024/01/31 04:37:55;;;;;;;1.65;1.10;;;7.20;99.90;;;;;;5100844;28;20024;-35
2024/01/31 04:40:21;;;;;;;1.75;1.20;;;7.10;99.90;;;;;;5101535;28;20024;-33
2024/01/31 04:42:47;;;;;;;1.67;1.00;;;7.20;99.90;;;;;;5101245;28;20077;-31
2024/01/31 04:45:13;;;;;;;3.75;1.15;;;7.20;99.90;;;;;;5101119;28;20098;-36
2024/01/31 04:47:41;;;;;;;2.40;1.00;;;7.10;99.90;;;;;;5102063;28;20036;-35
2024/01/31 04:50:07;;;;;;;2.38;0.93;;;7.20;99.90;;;;;;5100433;28;20031;-41
2024/01/31 04:52:36;;;;;;;2.92;1.27;;;7.10;99.90;;;;;;5101399;28;20618;-34
2024/01/31 04:55:02;;;;;;;3.42;1.00;;;7.10;99.90;;;;;;5101630;28;20062;-37
2024/01/31 04:57:28;;;;;;;1.40;1.30;;;7.10;99.90;;;;;;5100661;28;20024;-33
2024/01/31 04:59:53;;;;;;;1.80;1.10;;;7.10;99.90;;;;;;5100141;28;20522;-34
2024/01/31 05:02:19;;;;;;;2.08;1.02;;;7.10;99.90;;;;;;5100855;28;20124;-33
2024/01/31 05:04:44;;;;;;;2.22;1.20;;;7.20;99.90;;;;;;5102062;28;20024;-35
2024/01/31 05:07:10;;;;;;;1.77;1.00;;;7.20;99.90;;;;;;5100348;28;20016;-36
2024/01/31 05:09:36;;;;;;;3.53;1.20;;;7.10;99.90;;;;;;5099475;28;20888;-35
2024/01/31 05:12:02;;;;;;;1.42;1.20;;;7.10;99.90;;;;;;5101122;28;20028;-34
2024/01/31 05:14:28;;;;;;;2.13;1.00;;;7.10;99.90;;;;;;5101248;28;20058;-35
2024/01/31 05:16:54;;;;;;;2.28;1.20;;;7.10;99.90;;;;;;5100599;28;20062;-33
2024/01/31 05:19:19;;;;;;;2.38;1.00;;;7.10;99.90;;;;;;5099065;28;20469;-33
2024/01/31 05:21:49;;;;;;;3.75;1.30;;;7.10;99.90;;;;;;5100536;28;20134;-36
2024/01/31 05:24:15;;;;;;;2.47;1.30;;;7.10;99.90;;;;;;5100080;28;20454;-36
2024/01/31 05:26:43;;;;;;;2.90;1.20;;;7.10;99.90;;;;;;5101214;28;20030;-36
2024/01/31 05:29:09;;;;;;;1.85;1.00;;;7.10;99.90;;;;;;5100234;28;20042;-35
2024/01/31 05:31:41;;;;;;;1.70;0.80;;;7.10;99.90;;;;;;5099898;28;20040;-33
2024/01/31 05:34:06;;;;;;;1.35;0.95;;;7.10;99.90;;;;;;5100458;28;20015;-37
2024/01/31 05:36:32;;;;;;;3.05;1.10;;;7.00;99.90;;;;;;5099973;28;20039;-32
2024/01/31 05:38:58;;;;;;;2.20;1.02;;;7.00;99.90;;;;;;5098757;28;20012;-32
2024/01/31 05:41:23;;;;;;;1.63;1.10;;;7.00;99.90;;;;;;5100181;28;20015;-35
2024/01/31 05:43:49;;;;;;;1.65;1.10;;;7.00;99.90;;;;;;5101387;28;20134;-34
2024/01/31 05:46:16;;;;;;;3.35;1.42;;;7.10;99.90;;;;;;5099658;28;20053;-36
2024/01/31 05:48:46;;;;;;;2.33;1.10;;;7.00;99.90;;;;;;5100336;28;20028;-37
2024/01/31 05:51:12;;;;;;;1.35;1.23;;;7.10;99.90;;;;;;5099442;28;20909;-32
2024/01/31 05:53:40;;;;;;;3.47;2.03;;;7.10;99.90;;;;;;5099318;28;20027;-37
2024/01/31 05:56:06;;;;;;;3.08;1.35;;;7.10;99.90;;;;;;5099449;28;20064;-35
2024/01/31 05:58:32;;;;;;;1.85;1.20;;;7.00;99.90;;;;;;5099843;28;20023;-34
2024/01/31 06:00:58;;;;;;;5.00;2.95;;;7.10;99.90;;;;;;5098508;28;20611;-31
2024/01/31 06:03:25;;;;;;;1.45;1.27;;;7.00;99.90;;;;;;5100479;28;20650;-36
2024/01/31 06:05:51;;;;;;;1.40;1.30;;;7.00;99.90;;;;;;5099891;28;20569;-31
2024/01/31 06:08:18;;;;;;;3.15;1.27;;;7.10;99.90;;;;;;5098746;28;20382;-31
2024/01/31 06:10:49;;;;;;;1.52;1.40;;;7.10;99.90;;;;;;5100163;28;20100;-33
2024/01/31 06:13:15;;;;;;;1.92;1.27;;;7.10;99.90;;;;;;5100061;28;20019;-31
2024/01/31 06:15:40;;;;;;;4.25;1.48;;;7.10;99.90;;;;;;5098454;28;20047;-35
2024/01/31 06:18:06;;;;;;;2.10;1.20;;;7.10;99.90;;;;;;5099193;28;20043;-35
2024/01/31 06:20:32;;;;;;;2.20;1.52;;;7.00;99.90;;;;;;5099323;28;20034;-34
2024/01/31 06:22:57;;;;;;;1.75;1.30;;;7.10;99.90;;;;;;5098524;28;20039;-36
2024/01/31 06:25:23;;;;;;;3.08;1.40;;;7.10;99.90;;;;;;5097346;28;20131;-34
2024/01/31 06:27:48;;;;;;;2.13;1.40;;;7.10;99.90;;;;;;5099009;28;20032;-36
2024/01/31 06:30:19;;;;;;;3.53;1.30;;;7.00;99.90;;;;;;5096349;28;20092;-33
2024/01/31 06:32:47;;;;;;;2.42;1.38;;;7.00;99.90;;;;;;5098652;28;20023;-32
2024/01/31 06:35:13;;;;;;;1.90;1.42;;;7.00;99.90;;;;;;5097415;28;20027;-32
2024/01/31 06:37:39;;;;;;;2.65;1.25;;;7.10;99.90;;;;;;5097626;28;20055;-32
2024/01/31 06:40:08;;;;;;;1.42;1.23;;;7.10;99.90;;;;;;5095805;28;20134;-37
2024/01/31 06:42:33;;;;;;;1.60;1.20;;;7.10;99.90;;;;;;5097459;28;20039;-35
2024/01/31 06:44:59;;;;;;;2.13;1.50;;;7.10;99.90;;;;;;5099207;28;20035;-34
2024/01/31 06:47:25;;;;;;;2.20;1.40;;;7.10;99.90;;;;;;5097741;28;20031;-35
2024/01/31 06:49:50;;;;;;;1.50;1.40;;;7.10;99.90;;;;;;5097239;28;20043;-33
2024/01/31 06:52:16;;;;;;;3.50;1.27;;;7.10;99.90;;;;;;5093551;28;20028;-37
2024/01/31 06:54:41;;;;;;;3.10;1.40;;;7.10;99.90;;;;;;5097336;28;20024;-37
2024/01/31 06:57:07;;;;;;;3.42;1.60;;;7.10;99.90;;;;;;5096580;28;20055;-34
2024/01/31 06:59:33;;;;;;;2.00;1.45;;;7.10;99.90;;;;;;5098167;28;20069;-34
2024/01/31 07:01:58;;;;;;;2.60;1.70;;;7.10;99.90;;;;;;5098441;28;20276;-31
2024/01/31 07:04:24;;;;;;;2.95;1.55;;;7.10;99.90;;;;;;5088939;28;20154;-30
2024/01/31 07:06:49;;;;;;;2.60;1.83;;;7.10;99.90;;;;;;5096363;28;20025;-36
2024/01/31 07:09:15;;;;;;;2.28;1.55;;;7.10;99.90;;;;;;5098130;28;20100;-30
2024/01/31 07:11:41;;;;;;;2.28;1.65;;;7.10;99.90;;;;;;5094117;28;20505;-34
2024/01/31 07:14:07;;;;;;;3.70;1.63;;;7.10;99.90;;;;;;5095959;28;20122;-38
2024/01/31 07:16:35;;;;;;;2.33;1.60;;;7.10;99.90;;;;;;5096940;28;20055;-33
2024/01/31 07:19:01;;;;;;;2.38;1.75;;;7.10;99.90;;;;;;5095202;28;20028;-34
2024/01/31 07:21:26;;;;;;;1.92;1.60;;;7.10;99.90;;;;;;5097768;28;20566;-32
2024/01/31 07:23:52;;;;;;;3.70;1.90;;;7.10;99.90;;;;;;5096490;28;20032;-33
2024/01/31 07:26:23;;;;;;;1.98;1.50;;;7.00;99.90;;;;;;5099596;28;20015;-34
2024/01/31 07:28:49;;;;;;;1.75;1.48;;;7.00;99.90;;;;;;5094984;28;20038;-36
2024/01/31 07:31:20;;;;;;;1.77;1.67;;;7.00;99.90;;;;;;5097811;28;20043;-35
2024/01/31 07:33:46;;;;;;;3.38;1.83;;;7.00;99.90;;;;;;5097697;28;20031;-31
2024/01/31 07:36:12;;;;;;;1.90;1.80;;;7.00;99.90;;;;;;5097858;28;20026;-31
2024/01/31 07:38:46;;;;;;;3.15;1.90;;;7.00;99.90;;;;;;5097405;28;20682;-36
2024/01/31 07:41:12;;;;;;;3.53;2.17;;;7.00;99.90;;;;;;5095760;28;20720;-34
2024/01/31 07:43:37;;;;;;;2.75;1.95;;;7.10;99.90;;;;;;5096381;28;20019;-35
2024/01/31 07:46:04;;;;;;;2.08;1.83;;;7.00;99.90;;;;;;5100140;28;20023;-34
2024/01/31 07:48:30;;;;;;;2.65;2.00;;;7.10;99.90;;;;;;5102404;28;20035;-37
2024/01/31 07:50:55;;;;;;;1.90;1.67;;;7.00;99.90;;;;;;5102511;28;20039;-32
2024/01/31 07:53:21;;;;;;;3.03;2.47;;;7.10;99.90;;;;;;5101676;28;20019;-36
2024/01/31 07:55:47;;;;;;;1.85;1.75;;;7.10;99.90;;;;;;5102456;28;20043;-33
2024/01/31 07:58:12;;;;;;;2.03;1.90;;;7.10;99.90;;;;;;5101872;28;20024;-30
2024/01/31 08:00:38;;;;;;;1.80;1.70;;;7.10;99.90;;;;;;5101536;28;20111;-33
2024/01/31 08:03:04;;;;;;;1.90;1.80;;;7.10;99.90;;;;;;5100974;28;20111;-31
2024/01/31 08:05:29;;;;;;;1.80;1.60;;;7.10;99.90;;;;;;5102735;28;20783;-30
2024/01/31 08:07:55;;;;;;;1.88;1.65;;;7.20;99.90;;;;;;5101191;28;20110;-35
2024/01/31 08:10:20;;;;;;;2.03;1.77;;;7.20;99.90;;;;;;5101988;28;20118;-30
2024/01/31 08:12:48;;;;;;;1.92;1.73;;;7.20;99.90;;;;;;5102716;28;20020;-36
2024/01/31 08:15:13;;;;;;;2.75;2.08;;;7.20;99.90;;;;;;5101716;28;20142;-37
2024/01/31 08:17:39;;;;;;;2.35;2.00;;;7.20;99.90;;;;;;5102606;28;20893;-36
2024/01/31 08:20:06;;;;;;;2.72;2.00;;;7.20;99.90;;;;;;5100880;28;20027;-34
2024/01/31 08:22:33;;;;;;;4.50;2.60;;;7.20;99.90;;;;;;5100419;28;20027;-34
2024/01/31 08:24:59;;;;;;;2.85;1.92;;;7.20;99.90;;;;;;5100774;28;20035;-36
2024/01/31 08:27:24;;;;;;;2.83;2.30;;;7.30;99.90;;;;;;5099767;28;20024;-35
2024/01/31 08:29:54;;;;;;;4.32;2.20;;;7.20;99.90;;;;;;5100946;28;20438;-35
2024/01/31 08:32:19;;;;;;;2.78;2.30;;;7.30;99.90;;;;;;5100324;28;20024;-34
2024/01/31 08:34:45;;;;;;;2.25;2.05;;;7.30;99.90;;;;;;5100371;28;20016;-36
2024/01/31 08:37:11;;;;;;;5.40;2.60;;;7.30;99.90;;;;;;5101574;28;20024;-33
2024/01/31 08:39:36;;;;;;;2.83;2.35;;;7.30;99.90;;;;;;5101543;28;20035;-34
2024/01/31 08:42:03;;;;;;;2.65;2.45;;;7.30;99.90;;;;;;5101418;28;20155;-34
2024/01/31 08:44:28;;;;;;;3.25;2.72;;;7.40;99.90;;;;;;5101417;28;20030;-35
2024/01/31 08:46:54;;;;;;;3.10;2.80;;;7.40;99.90;;;;;;5101286;28;20024;-33
2024/01/31 08:49:21;;;;;;;3.30;2.92;;;7.40;99.90;;;;;;5100225;28;20026;-33
2024/01/31 08:51:47;;;;;;;5.00;3.10;;;7.40;99.90;;;;;;5101164;28;20040;-36
2024/01/31 08:54:13;;;;;;;4.45;2.72;;;7.40;99.90;;;;;;5100893;28;20026;-34
2024/01/31 08:56:39;;;;;;;3.88;2.80;;;7.40;99.90;;;;;;5099892;28;20032;-35
2024/01/31 08:59:06;;;;;;;3.42;2.78;;;7.40;99.90;;;;;;5101569;28;20019;-37
2024/01/31 09:01:35;;;;;;;4.28;2.63;;;7.50;99.90;;;;;;5101573;28;20122;-36
2024/01/31 09:04:00;;;;;;;3.45;2.63;;;7.50;99.90;;;;;;5101334;28;20051;-33
2024/01/31 09:06:26;;;;;;;6.50;2.90;;;7.50;99.90;;;;;;5101185;28;20127;-37
2024/01/31 09:08:51;;;;;;;3.40;3.10;;;7.50;99.90;;;;;;5101436;28;20801;-34
2024/01/31 09:11:18;;;;;;;3.63;2.83;;;7.50;99.90;;;;;;5100459;28;20816;-33
2024/01/31 09:13:43;;;;;;;3.25;2.72;;;7.60;99.90;;;;;;5100166;28;20062;-34
2024/01/31 09:16:09;;;;;;;3.10;2.78;;;7.60;99.90;;;;;;5100285;28;20445;-38
2024/01/31 09:18:35;;;;;;;2.90;2.58;;;7.60;99.90;;;;;;5100827;28;20051;-34
2024/01/31 09:21:00;;;;;;;4.05;3.03;;;7.60;99.90;;;;;;5099845;28;20542;-36
2024/01/31 09:23:26;;;;;;;4.13;3.10;;;7.60;99.90;;;;;;5099259;28;20049;-31
2024/01/31 09:25:51;;;;;;;3.65;2.90;;;7.60;99.90;;;;;;5099194;28;20081;-35
2024/01/31 09:28:17;;;;;;;4.00;3.22;;;7.70;99.90;;;;;;5099751;28;20102;-35
2024/01/31 09:30:44;;;;;;;3.40;2.80;;;7.70;99.90;;;;;;5099260;28;20039;-33
2024/01/31 09:33:10;;;;;;;4.35;2.50;;;7.80;99.90;;;;;;5099614;28;20586;-36
2024/01/31 09:35:35;;;;;;;3.63;3.28;;;7.80;99.90;;;;;;5100094;28;20039;-34
2024/01/31 09:38:01;;;;;;;5.05;3.40;;;7.80;99.90;;;;;;5100071;28;20019;-35
2024/01/31 09:40:30;;;;;;;3.40;3.08;;;7.90;99.90;;;;;;5100711;28;20034;-34
2024/01/31 09:42:55;;;;;;;2.88;2.55;;;7.90;99.90;;;;;;5100479;28;20027;-34
2024/01/31 09:45:22;;;;;;;4.13;2.80;;;7.90;99.90;;;;;;5099674;28;20201;-36
2024/01/31 09:47:49;;;;;;;5.70;3.72;;;8.00;99.90;;;;;;5100664;28;20672;-35
2024/01/31 09:50:15;;;;;;;4.30;3.10;;;8.00;99.90;;;;;;5099067;28;20857;-34
2024/01/31 09:52:41;;;;;;;3.65;3.25;;;8.10;99.90;;;;;;5100304;28;20055;-35
2024/01/31 09:55:11;;;;;;;4.45;2.90;;;8.10;99.90;;;;;;5100177;28;20147;-32
2024/01/31 09:57:41;;;;;;;3.63;3.17;;;8.20;99.90;;;;;;5099820;28;20026;-34
2024/01/31 10:00:10;;;;;;;4.60;3.10;;;8.20;99.90;;;;;;5099437;28;20452;-36
2024/01/31 10:02:37;;;;;;;3.30;3.00;;;8.30;99.90;;;;;;5099379;28;20110;-34
2024/01/31 10:05:06;;;;;;;4.43;3.30;;;8.30;99.90;;;;;;5100381;28;20023;-36
2024/01/31 10:07:32;;;;;;;5.25;3.80;;;8.40;99.90;;;;;;5099394;28;20066;-35
2024/01/31 10:09:57;;;;;;;5.13;4.00;;;8.40;99.90;;;;;;5100278;28;20134;-34
2024/01/31 10:12:23;;;;;;;4.70;3.58;;;8.40;99.90;;;;;;5099614;28;20032;-33
2024/01/31 10:14:52;;;;;;;4.90;3.20;;;8.40;99.90;;;;;;5099576;28;20084;-34
2024/01/31 10:17:22;;;;;;;5.70;4.00;;;8.40;99.90;;;;;;5098926;28;20043;-37
2024/01/31 10:19:49;;;;;;;6.07;4.63;;;8.50;99.90;;;;;;5099734;28;20147;-33
2024/01/31 10:22:15;;;;;;;5.50;3.95;;;8.50;99.90;;;;;;5100091;28;20027;-33
2024/01/31 10:24:42;;;;;;;6.93;4.65;;;8.50;99.90;;;;;;5100650;28;20020;-35
2024/01/31 10:27:08;;;;;;;6.45;5.10;;;8.50;99.90;;;;;;5098339;28;20023;-33
2024/01/31 10:29:34;;;;;;;7.93;4.95;;;8.50;99.90;;;;;;5099793;28;20510;-32
2024/01/31 10:32:00;;;;;;;6.07;4.90;;;8.50;99.90;;;;;;5098077;28;20022;-34
2024/01/31 10:34:27;;;;;;;6.28;4.35;;;8.50;99.90;;;;;;5097304;28;20024;-35
2024/01/31 10:36:55;;;;;;;5.80;4.43;;;8.50;99.90;;;;;;5098668;28;20041;-35
2024/01/31 10:39:21;;;;;;;6.55;5.43;;;8.50;99.90;;;;;;5097842;28;20020;-35
2024/01/31 10:41:50;;;;;;;8.82;6.25;;;8.50;99.90;;;;;;5098452;28;20340;-37
2024/01/31 10:44:16;;;;;;;6.82;5.65;;;8.50;99.90;;;;;;5098609;28;20027;-37
2024/01/31 10:47:03;;;;;;;7.22;6.30;;;8.50;99.90;;;;;;5100724;28;20023;-35
2024/01/31 10:49:28;;;;;;;10.93;6.72;;;8.50;99.90;;;;;;5095779;28;20027;-35
2024/01/31 10:51:58;;;;;;;9.68;6.75;;;8.50;99.90;;;;;;5099997;28;20028;-35
2024/01/31 10:54:28;;;;;;;9.88;6.78;;;8.50;99.90;;;;;;5099360;28;20019;-35
2024/01/31 10:56:55;;;;;;;11.82;7.97;;;8.50;99.90;;;;;;5098759;28;20027;-32
2024/01/31 10:59:21;;;;;;;12.88;8.68;;;8.50;99.90;;;;;;5099347;28;20037;-34
2024/01/31 11:01:51;;;;;;;11.70;8.32;;;8.50;99.90;;;;;;5099431;28;20110;-36
2024/01/31 11:04:17;;;;;;;11.77;8.23;;;8.50;99.90;;;;;;5099198;28;20027;-33
2024/01/31 11:06:43;;;;;;;14.85;9.90;;;8.50;99.90;;;;;;5100204;28;20023;-31
2024/01/31 11:09:22;;;;;;;14.13;9.50;;;8.50;99.90;;;;;;5098135;28;20031;-33
2024/01/31 11:12:01;;;;;;;12.80;9.63;;;8.60;99.90;;;;;;5099217;28;20073;-37
2024/01/31 11:14:30;;;;;;;13.40;8.85;;;8.60;99.90;;;;;;5099012;28;20034;-37
2024/01/31 11:17:09;;;;;;;15.45;10.77;;;8.60;99.90;;;;;;5097969;28;20055;-38
2024/01/31 11:19:41;;;;;;;15.85;10.88;;;8.70;99.90;;;;;;5099136;28;20027;-37
2024/01/31 11:22:07;;;;;;;12.02;8.98;;;8.70;99.90;;;;;;5099709;28;20019;-35
2024/01/31 11:24:33;;;;;;;14.02;8.88;;;8.70;99.90;;;;;;5098920;28;20026;-34
2024/01/31 11:27:01;;;;;;;14.25;9.50;;;8.80;99.90;;;;;;5099401;28;20055;-35
2024/01/31 11:29:27;;;;;;;13.40;9.43;;;8.80;99.90;;;;;;5098937;28;20024;-35
2024/01/31 11:31:53;;;;;;;16.60;10.45;;;8.80;99.90;;;;;;5098812;28;20039;-34
2024/01/31 11:34:19;;;;;;;18.10;11.93;;;8.90;99.90;;;;;;5098330;28;20828;-34
2024/01/31 11:36:44;;;;;;;17.60;12.38;;;8.90;99.90;;;;;;5099557;28;20027;-34
2024/01/31 11:39:10;;;;;;;24.13;13.75;;;8.90;99.90;;;;;;5098472;28;20099;-36
2024/01/31 11:41:36;;;;;;;21.00;13.23;;;8.80;99.90;;;;;;5099017;28;20565;-33
2024/01/31 11:44:02;;;;;;;19.45;13.13;;;8.80;99.90;;;;;;5097440;28;20490;-35
2024/01/31 11:46:28;;;;;;;17.95;13.40;;;8.80;99.90;;;;;;5099224;28;20024;-31
2024/01/31 11:48:55;;;;;;;17.85;11.95;;;8.80;99.90;;;;;;5099049;28;20100;-36
2024/01/31 11:51:20;;;;;;;19.13;12.43;;;8.90;99.90;;;;;;5097838;28;20484;-34
2024/01/31 11:53:46;;;;;;;16.20;11.05;;;8.90;99.90;;;;;;5099447;28;20510;-33
2024/01/31 11:56:15;;;;;;;18.80;12.02;;;8.90;99.90;;;;;;5098625;28;20031;-32
2024/01/31 11:58:41;;;;;;;19.00;11.35;;;8.90;99.90;;;;;;5098948;28;20024;-35
2024/01/31 12:01:06;;;;;;;18.63;11.80;;;9.00;99.90;;;;;;5099352;28;20038;-37
2024/01/31 12:03:32;;;;;;;19.15;11.38;;;9.00;99.90;;;;;;5098562;28;20778;-33
2024/01/31 12:05:57;;;;;;;17.92;11.77;;;9.00;99.90;;;;;;5097351;28;20089;-32
2024/01/31 12:08:27;;;;;;;17.05;11.68;;;9.00;99.90;;;;;;5098514;28;20157;-35
2024/01/31 12:10:54;;;;;;;16.80;11.90;;;9.00;99.90;;;;;;5097950;28;20035;-34
2024/01/31 12:13:22;;;;;;;16.23;11.15;;;9.00;99.90;;;;;;5097346;28;20118;-33
2024/01/31 12:15:48;;;;;;;17.13;11.30;;;9.00;99.90;;;;;;5098293;28;20027;-33
2024/01/31 12:18:15;;;;;;;17.40;11.60;;;8.90;99.90;;;;;;5097153;28;20050;-36
2024/01/31 12:20:40;;;;;;;18.38;11.77;;;8.90;99.90;;;;;;5098298;28;20367;-32
2024/01/31 12:23:06;;;;;;;16.42;11.75;;;8.90;99.90;;;;;;5098562;28;20034;-34
2024/01/31 12:25:32;;;;;;;18.73;13.23;;;8.90;99.90;;;;;;5098679;28;20051;-32
2024/01/31 12:27:57;;;;;;;16.67;11.18;;;8.90;99.90;;;;;;5098491;28;20024;-34
2024/01/31 12:30:23;;;;;;;13.98;10.13;;;8.90;99.90;;;;;;5098167;28;20047;-33
2024/01/31 12:32:49;;;;;;;14.07;10.35;;;8.90;99.90;;;;;;5101373;28;20024;-36
2024/01/31 12:35:14;;;;;;;16.83;11.23;;;8.80;99.90;;;;;;5101683;28;20034;-34
2024/01/31 12:37:40;;;;;;;13.73;10.07;;;8.80;99.90;;;;;;5102083;28;20771;-36
2024/01/31 12:40:07;;;;;;;12.80;9.95;;;8.80;99.90;;;;;;5101910;28;20118;-34
2024/01/31 12:42:33;;;;;;;10.90;8.35;;;8.80;99.90;;;;;;5101252;28;20023;-36
2024/01/31 12:44:58;;;;;;;13.65;9.48;;;8.80;99.90;;;;;;5101668;28;20020;-31
2024/01/31 12:47:24;;;;;;;13.40;9.68;;;8.80;99.90;;;;;;5100749;28;20466;-34
2024/01/31 12:49:50;;;;;;;11.60;9.48;;;8.80;99.90;;;;;;5101603;28;20043;-37
2024/01/31 12:52:15;;;;;;;10.40;8.85;;;8.80;99.90;;;;;;5101098;28;20031;-32